Time;durP1;ratioP1;P1;durP2;ratioP2;P2;SDS_P1;SDS_P2;PMS_P1;PMS_P2;Temp;Humidity;BMP_temperature;BMP_pressure;BME280_temperature;BME280_humidity;BME280_pressure;Samples;Min_cycle;Max_cycle;Signal;HPM_P1;HPM_P2
2022/09/09 00:01:11;;;;;;;6.90;3.92;;;13.80;99.90;;;;;;5071102;28;20040;-79
2022/09/09 00:03:53;;;;;;;7.18;4.30;;;13.80;99.90;;;;;;5070404;28;20056;-79
2022/09/09 00:06:29;;;;;;;7.82;4.57;;;13.80;99.90;;;;;;5070740;28;20076;-79
2022/09/09 00:09:06;;;;;;;8.73;4.40;;;13.80;99.90;;;;;;5071147;28;20460;-79
2022/09/09 00:11:56;;;;;;;5.50;3.55;;;13.80;99.90;;;;;;5055190;28;20102;-79
2022/09/09 00:14:37;;;;;;;5.80;4.18;;;13.90;99.90;;;;;;5058281;28;20036;-78
2022/09/09 00:17:39;;;;;;;7.22;3.90;;;13.90;99.90;;;;;;5058196;28;20053;-79
2022/09/09 00:20:24;;;;;;;10.05;4.20;;;13.80;99.90;;;;;;5074872;28;20048;-79
2022/09/09 00:23:19;;;;;;;11.70;4.65;;;13.80;99.90;;;;;;5074284;28;20090;-79
2022/09/09 00:26:04;;;;;;;6.50;3.67;;;13.70;99.90;;;;;;5073961;28;20400;-79
2022/09/09 00:28:34;;;;;;;5.90;3.83;;;13.70;99.90;;;;;;5073641;28;20044;-79
2022/09/09 00:31:10;;;;;;;7.38;4.32;;;13.60;99.90;;;;;;5073785;28;20029;-79
2022/09/09 00:33:38;;;;;;;8.27;3.72;;;13.60;99.90;;;;;;5074312;28;20072;-79
2022/09/09 00:36:13;;;;;;;7.15;4.32;;;13.70;99.90;;;;;;5077444;28;20040;-79
2022/09/09 00:39:05;;;;;;;8.85;4.00;;;13.70;99.90;;;;;;5083671;28;20388;-79
2022/09/09 00:41:40;;;;;;;9.75;4.07;;;13.80;99.90;;;;;;5080076;28;20117;-79
2022/09/09 00:44:36;;;;;;;11.23;4.10;;;13.90;99.90;;;;;;5076337;28;20513;-79
2022/09/09 00:47:11;;;;;;;5.78;4.15;;;13.90;99.90;;;;;;5072117;28;20052;-79
2022/09/09 00:49:52;;;;;;;7.97;3.72;;;13.80;99.90;;;;;;5056607;28;20040;-79
2022/09/09 00:52:22;;;;;;;12.82;4.72;;;14.00;99.90;;;;;;5056263;28;20504;-79
2022/09/09 00:55:20;;;;;;;7.10;4.32;;;13.90;99.90;;;;;;5072980;28;20055;-79
2022/09/09 00:57:48;;;;;;;9.77;4.90;;;14.00;99.90;;;;;;5044707;28;20091;-79
2022/09/09 01:00:36;;;;;;;7.13;4.30;;;14.00;99.90;;;;;;5072597;28;20072;-78
2022/09/09 01:03:30;;;;;;;8.00;4.53;;;14.00;99.90;;;;;;5055171;28;20445;-78
2022/09/09 01:06:11;;;;;;;9.88;4.43;;;14.10;99.90;;;;;;5072272;28;20036;-79
2022/09/09 01:08:58;;;;;;;8.05;4.30;;;14.20;99.90;;;;;;5055692;28;20047;-78
2022/09/09 01:11:31;;;;;;;6.93;4.65;;;14.40;99.90;;;;;;5071779;28;20044;-78
2022/09/09 01:14:09;;;;;;;8.25;4.60;;;14.40;99.90;;;;;;5071802;28;20052;-78
2022/09/09 01:16:35;;;;;;;8.70;4.05;;;14.50;99.90;;;;;;5072301;28;20467;-78
2022/09/09 01:19:07;;;;;;;8.18;4.75;;;14.40;99.90;;;;;;5055092;28;20102;-78
2022/09/09 01:21:54;;;;;;;8.23;4.47;;;14.60;99.90;;;;;;5071873;28;20084;-78
2022/09/09 01:24:42;;;;;;;12.07;4.60;;;14.50;99.90;;;;;;5070767;28;20068;-79
2022/09/09 01:27:09;;;;;;;9.60;4.43;;;14.50;99.90;;;;;;5072862;28;20036;-78
2022/09/09 01:29:35;;;;;;;7.95;4.63;;;14.60;99.90;;;;;;5055288;28;20043;-79
2022/09/09 01:32:37;;;;;;;8.13;3.75;;;14.60;99.90;;;;;;5071429;28;20123;-76
2022/09/09 01:35:04;;;;;;;9.73;3.20;;;14.60;99.90;;;;;;5072624;28;20056;-76
2022/09/09 01:37:29;;;;;;;14.63;3.75;;;14.60;99.90;;;;;;5054886;28;20392;-78
2022/09/09 01:39:55;;;;;;;18.27;3.78;;;14.70;99.90;;;;;;5072813;28;20170;-76
2022/09/09 01:42:20;;;;;;;9.40;3.28;;;14.60;99.90;;;;;;5070971;28;20094;-76
2022/09/09 01:44:46;;;;;;;7.85;3.25;;;14.70;99.90;;;;;;5071529;28;20037;-77
2022/09/09 01:47:12;;;;;;;6.78;3.33;;;14.60;99.90;;;;;;5071322;28;20105;-78
2022/09/09 01:49:37;;;;;;;6.30;2.72;;;14.60;99.90;;;;;;5071016;28;20037;-77
2022/09/09 01:52:03;;;;;;;6.07;2.80;;;14.70;99.90;;;;;;5071900;28;20048;-77
2022/09/09 01:54:31;;;;;;;7.45;4.30;;;14.70;99.90;;;;;;5071102;28;20424;-77
2022/09/09 01:57:29;;;;;;;6.32;3.08;;;14.70;99.90;;;;;;5070808;28;20622;-79
2022/09/09 02:00:11;;;;;;;6.20;3.10;;;14.70;99.90;;;;;;5070923;28;20040;-79
2022/09/09 02:03:12;;;;;;;7.07;2.92;;;14.70;99.90;;;;;;5070610;28;20633;-79
2022/09/09 02:05:48;;;;;;;6.82;3.17;;;14.70;99.90;;;;;;5054338;28;20045;-79
2022/09/09 02:08:23;;;;;;;7.03;3.38;;;14.70;99.90;;;;;;5070835;28;20075;-79
2022/09/09 02:11:11;;;;;;;5.85;4.00;;;14.80;99.90;;;;;;5070804;28;20120;-79
2022/09/09 02:13:38;;;;;;;12.32;3.80;;;14.80;99.90;;;;;;5070471;28;20044;-79
2022/09/09 02:16:15;;;;;;;7.13;3.92;;;14.80;99.90;;;;;;5070543;28;20051;-79
2022/09/09 02:18:48;;;;;;;6.55;3.85;;;14.80;99.90;;;;;;5070509;28;20135;-79
2022/09/09 02:21:16;;;;;;;8.55;4.10;;;14.80;99.90;;;;;;5054080;28;20055;-79
2022/09/09 02:23:44;;;;;;;7.00;3.80;;;14.80;99.90;;;;;;5053591;28;20380;-79
2022/09/09 02:26:14;;;;;;;7.80;4.20;;;14.90;99.90;;;;;;5070706;28;20033;-79
2022/09/09 02:28:42;;;;;;;11.27;4.55;;;14.80;99.90;;;;;;5053688;28;20041;-79
2022/09/09 02:31:07;;;;;;;5.82;4.00;;;14.90;99.90;;;;;;5053643;28;20041;-79
2022/09/09 02:33:46;;;;;;;9.73;3.90;;;14.80;99.90;;;;;;5054075;28;20074;-79
2022/09/09 02:36:18;;;;;;;8.77;3.95;;;14.80;99.90;;;;;;5071001;28;20404;-80
2022/09/09 02:38:50;;;;;;;7.57;3.80;;;14.70;99.90;;;;;;5075335;28;20044;-80
2022/09/09 02:41:19;;;;;;;7.05;4.43;;;14.60;99.90;;;;;;5080101;28;20036;-80
2022/09/09 02:43:45;;;;;;;6.15;4.47;;;14.80;99.90;;;;;;5079750;28;20093;-80
2022/09/09 02:46:32;;;;;;;6.07;4.05;;;14.70;99.90;;;;;;5096684;28;20044;-80
2022/09/09 02:48:57;;;;;;;8.85;3.60;;;14.70;99.90;;;;;;5080266;28;20054;-79
2022/09/09 02:51:35;;;;;;;12.65;5.00;;;14.60;99.90;;;;;;5079515;28;20025;-79
2022/09/09 02:54:18;;;;;;;9.68;5.18;;;14.60;99.90;;;;;;5090080;28;20056;-79
2022/09/09 02:56:50;;;;;;;9.40;5.30;;;14.60;99.90;;;;;;5079946;28;20059;-82
2022/09/09 02:59:17;;;;;;;7.55;4.88;;;14.60;99.90;;;;;;5095738;28;20048;-82
2022/09/09 03:01:43;;;;;;;8.85;5.32;;;14.60;99.90;;;;;;5061599;28;20040;-78
2022/09/09 03:04:09;;;;;;;9.07;5.35;;;14.60;99.90;;;;;;5052909;28;20393;-78
2022/09/09 03:06:35;;;;;;;7.55;5.45;;;14.60;99.90;;;;;;5052754;28;20086;-79
2022/09/09 03:09:02;;;;;;;6.60;5.15;;;14.60;99.90;;;;;;5069909;28;20040;-79
2022/09/09 03:11:28;;;;;;;11.23;5.50;;;14.50;99.90;;;;;;5052673;28;20052;-78
2022/09/09 03:13:55;;;;;;;7.43;5.63;;;14.70;99.90;;;;;;5069769;28;20044;-78
2022/09/09 03:16:22;;;;;;;6.57;5.25;;;14.70;99.90;;;;;;5070723;28;20043;-78
2022/09/09 03:18:48;;;;;;;8.57;5.28;;;14.60;99.90;;;;;;5070312;28;20059;-78
2022/09/09 03:21:14;;;;;;;8.48;4.95;;;14.60;99.90;;;;;;5070201;28;20487;-80
2022/09/09 03:23:40;;;;;;;8.68;5.18;;;14.70;99.90;;;;;;5070257;28;20048;-78
2022/09/09 03:26:06;;;;;;;13.48;5.95;;;14.60;99.90;;;;;;5069694;28;20040;-78
2022/09/09 03:28:31;;;;;;;10.50;4.90;;;14.70;99.90;;;;;;5069873;28;20132;-78
2022/09/09 03:31:04;;;;;;;7.18;4.68;;;14.60;99.90;;;;;;5071037;28;20076;-79
2022/09/09 03:33:31;;;;;;;9.55;4.68;;;14.70;99.90;;;;;;5070623;28;20044;-78
2022/09/09 03:35:57;;;;;;;8.88;5.25;;;14.60;99.90;;;;;;5052585;28;20040;-78
2022/09/09 03:38:25;;;;;;;7.07;4.38;;;14.60;99.90;;;;;;5052540;28;20055;-78
2022/09/09 03:40:55;;;;;;;7.15;4.43;;;14.60;99.90;;;;;;5052364;28;20078;-79
2022/09/09 03:43:22;;;;;;;12.52;4.53;;;14.70;99.90;;;;;;5068900;28;20043;-78
2022/09/09 03:45:48;;;;;;;11.15;4.55;;;14.70;99.90;;;;;;5070082;28;20474;-78
2022/09/09 03:48:15;;;;;;;7.63;4.40;;;14.70;99.90;;;;;;5070454;28;20083;-78
2022/09/09 03:50:48;;;;;;;6.53;4.40;;;14.70;99.90;;;;;;5069893;28;20496;-78
2022/09/09 03:53:15;;;;;;;8.90;4.95;;;14.60;99.90;;;;;;5052325;28;20503;-78
2022/09/09 03:55:45;;;;;;;10.75;5.35;;;14.70;99.90;;;;;;5052284;28;20302;-77
2022/09/09 03:58:12;;;;;;;7.25;5.38;;;14.60;99.90;;;;;;5069364;28;20536;-77
2022/09/09 04:00:42;;;;;;;10.88;5.05;;;14.60;99.90;;;;;;5069047;28;20040;-78
2022/09/09 04:03:08;;;;;;;8.48;5.05;;;14.60;99.90;;;;;;5068325;28;20041;-77
2022/09/09 04:05:33;;;;;;;11.55;5.82;;;14.60;99.90;;;;;;5069561;28;20040;-77
2022/09/09 04:07:59;;;;;;;11.13;6.00;;;14.50;99.90;;;;;;5052863;28;20033;-78
2022/09/09 04:10:25;;;;;;;11.48;5.72;;;14.50;99.90;;;;;;5051941;28;20481;-77
2022/09/09 04:12:50;;;;;;;10.30;5.45;;;14.50;99.90;;;;;;5068849;28;20059;-78
2022/09/09 04:15:18;;;;;;;13.32;6.20;;;14.50;99.90;;;;;;5068775;28;20520;-78
2022/09/09 04:17:44;;;;;;;10.60;6.25;;;14.50;99.90;;;;;;5068916;28;20098;-78
2022/09/09 04:20:11;;;;;;;11.15;5.65;;;14.50;99.90;;;;;;5068852;28;20044;-77
2022/09/09 04:22:38;;;;;;;9.30;5.70;;;14.50;99.90;;;;;;5068561;28;20150;-78
2022/09/09 04:25:05;;;;;;;10.70;6.18;;;14.40;99.90;;;;;;5069476;28;20052;-77
2022/09/09 04:27:31;;;;;;;12.98;6.45;;;14.40;99.90;;;;;;5069133;28;20432;-77
2022/09/09 04:29:58;;;;;;;11.68;6.40;;;14.40;99.90;;;;;;5068839;28;20499;-77
2022/09/09 04:32:26;;;;;;;8.25;5.65;;;14.40;99.90;;;;;;5068518;28;20106;-77
2022/09/09 04:34:52;;;;;;;10.40;6.35;;;14.40;99.90;;;;;;5068972;28;20583;-77
2022/09/09 04:37:18;;;;;;;13.05;5.75;;;14.40;99.90;;;;;;5052421;28;20053;-77
2022/09/09 04:39:44;;;;;;;10.88;5.93;;;14.40;99.90;;;;;;5052088;28;20033;-78
2022/09/09 04:42:13;;;;;;;9.88;6.03;;;14.30;99.90;;;;;;5051993;28;20047;-77
2022/09/09 04:44:40;;;;;;;11.65;6.40;;;14.30;99.90;;;;;;5068652;28;20037;-77
2022/09/09 04:47:06;;;;;;;9.60;5.68;;;14.30;99.90;;;;;;5051987;28;20040;-77
2022/09/09 04:49:31;;;;;;;10.57;6.40;;;14.20;99.90;;;;;;5068980;28;20102;-77
2022/09/09 04:51:57;;;;;;;10.23;6.82;;;14.20;99.90;;;;;;5068454;28;20068;-78
2022/09/09 04:54:22;;;;;;;9.82;6.13;;;14.20;99.90;;;;;;5068590;28;20048;-77
2022/09/09 04:56:50;;;;;;;11.98;6.60;;;14.20;99.90;;;;;;5069250;28;20123;-76
2022/09/09 04:59:16;;;;;;;9.95;6.57;;;14.10;99.90;;;;;;5091283;28;20045;-76
2022/09/09 05:01:42;;;;;;;11.98;7.13;;;14.00;99.90;;;;;;5092385;28;20047;-80
2022/09/09 05:04:08;;;;;;;10.35;6.78;;;13.90;99.90;;;;;;5085046;28;20503;-76
2022/09/09 05:06:35;;;;;;;9.50;6.57;;;13.90;99.90;;;;;;5088768;28;20028;-79
2022/09/09 05:09:01;;;;;;;10.68;6.28;;;14.00;99.90;;;;;;5099587;28;20032;-79
2022/09/09 05:11:29;;;;;;;13.38;6.47;;;13.90;99.90;;;;;;5099478;28;20117;-79
2022/09/09 05:13:58;;;;;;;12.38;6.78;;;14.00;99.90;;;;;;5082951;28;20059;-79
2022/09/09 05:16:24;;;;;;;9.68;6.32;;;13.90;99.90;;;;;;5098154;28;20052;-79
2022/09/09 05:18:53;;;;;;;9.63;6.93;;;13.80;99.90;;;;;;5099028;28;20032;-79
2022/09/09 05:21:21;;;;;;;11.07;6.28;;;13.90;99.90;;;;;;5061494;28;20036;-79
2022/09/09 05:23:47;;;;;;;10.30;6.63;;;13.90;99.90;;;;;;5071615;28;20048;-78
2022/09/09 05:26:15;;;;;;;8.07;5.68;;;13.90;99.90;;;;;;5055208;28;20032;-78
2022/09/09 05:28:41;;;;;;;9.57;6.20;;;13.90;99.90;;;;;;5071878;28;20046;-78
2022/09/09 05:31:11;;;;;;;9.23;6.55;;;13.90;99.90;;;;;;5071493;28;20045;-78
2022/09/09 05:33:40;;;;;;;10.57;7.00;;;13.90;99.90;;;;;;5055293;28;20400;-78
2022/09/09 05:36:08;;;;;;;11.15;6.47;;;13.90;99.90;;;;;;5073158;28;20076;-78
2022/09/09 05:38:34;;;;;;;11.30;6.47;;;14.00;99.90;;;;;;5055080;28;20443;-78
2022/09/09 05:41:02;;;;;;;12.50;6.80;;;14.00;99.90;;;;;;5055161;28;20048;-78
2022/09/09 05:43:29;;;;;;;10.43;5.70;;;14.10;99.90;;;;;;5071187;28;20036;-78
2022/09/09 05:46:04;;;;;;;11.07;6.88;;;14.00;99.90;;;;;;5054726;28;20044;-78
2022/09/09 05:48:32;;;;;;;11.23;6.65;;;14.20;99.90;;;;;;5071859;28;20119;-78
2022/09/09 05:50:59;;;;;;;11.00;6.35;;;14.20;99.90;;;;;;5054868;28;20420;-78
2022/09/09 05:53:25;;;;;;;11.45;5.57;;;14.30;99.90;;;;;;5071317;28;20101;-78
2022/09/09 05:55:59;;;;;;;11.02;6.57;;;14.30;99.90;;;;;;5071607;28;20072;-78
2022/09/09 05:58:25;;;;;;;14.73;6.53;;;14.30;99.90;;;;;;5054679;28;20082;-78
2022/09/09 06:00:50;;;;;;;8.32;5.72;;;14.40;99.90;;;;;;5071631;28;20055;-78
2022/09/09 06:03:16;;;;;;;10.13;5.68;;;14.40;99.90;;;;;;5070926;28;20044;-78
2022/09/09 06:05:42;;;;;;;9.20;6.30;;;14.40;99.90;;;;;;5054611;28;20472;-78
2022/09/09 06:08:08;;;;;;;12.88;6.72;;;14.40;99.90;;;;;;5071173;28;20068;-78
2022/09/09 06:10:33;;;;;;;10.05;6.20;;;14.50;99.90;;;;;;5070772;28;20059;-78
2022/09/09 06:12:59;;;;;;;7.50;5.78;;;14.50;99.90;;;;;;5071017;28;20424;-78
2022/09/09 06:15:26;;;;;;;9.45;6.35;;;14.60;99.90;;;;;;5071825;28;20075;-79
2022/09/09 06:17:55;;;;;;;8.65;6.50;;;14.60;99.90;;;;;;5071973;28;20115;-79
2022/09/09 06:20:22;;;;;;;10.57;6.72;;;14.60;99.90;;;;;;5071701;28;20084;-79
2022/09/09 06:22:48;;;;;;;10.95;6.95;;;14.60;99.90;;;;;;5071335;28;20047;-79
2022/09/09 06:25:14;;;;;;;9.95;5.90;;;14.60;99.90;;;;;;5072181;28;20087;-80
2022/09/09 06:27:40;;;;;;;8.48;6.07;;;14.60;99.90;;;;;;5071590;28;20078;-79
2022/09/09 06:30:07;;;;;;;10.75;5.47;;;14.60;99.90;;;;;;5072219;28;20044;-79
2022/09/09 06:32:34;;;;;;;9.00;5.47;;;14.60;99.90;;;;;;5071298;28;20044;-80
2022/09/09 06:35:01;;;;;;;13.55;5.95;;;14.70;99.90;;;;;;5071075;28;20556;-79
2022/09/09 06:37:27;;;;;;;10.13;6.20;;;14.60;99.90;;;;;;5054964;28;20497;-79
2022/09/09 06:39:54;;;;;;;8.88;5.72;;;14.80;99.90;;;;;;5054547;28;20381;-79
2022/09/09 06:42:20;;;;;;;7.55;4.57;;;14.70;99.90;;;;;;5071090;28;20112;-80
2022/09/09 06:44:45;;;;;;;9.32;5.20;;;14.80;99.90;;;;;;5070903;28;20611;-80
2022/09/09 06:47:11;;;;;;;9.90;5.75;;;14.80;99.90;;;;;;5072715;28;20139;-80
2022/09/09 06:49:37;;;;;;;13.75;5.43;;;14.90;99.90;;;;;;5072381;28;20033;-80
2022/09/09 06:52:02;;;;;;;7.95;5.60;;;14.90;99.90;;;;;;5070348;28;20036;-79
2022/09/09 06:54:28;;;;;;;11.68;6.50;;;14.90;99.90;;;;;;5071054;28;20121;-79
2022/09/09 06:56:53;;;;;;;8.68;5.60;;;15.00;99.90;;;;;;5071392;28;20044;-80
2022/09/09 06:59:19;;;;;;;10.40;5.43;;;15.00;99.90;;;;;;5054758;28;20051;-80
2022/09/09 07:01:46;;;;;;;14.07;6.03;;;15.00;99.90;;;;;;5054580;28;20123;-80
2022/09/09 07:04:13;;;;;;;17.40;6.07;;;15.20;99.90;;;;;;5054651;28;20036;-80
2022/09/09 07:06:43;;;;;;;10.65;5.40;;;15.30;99.90;;;;;;5071313;28;20045;-80
2022/09/09 07:09:11;;;;;;;8.25;5.43;;;15.30;99.90;;;;;;5070953;28;20165;-80
2022/09/09 07:11:45;;;;;;;11.98;5.40;;;15.50;99.90;;;;;;5072003;28;20138;-80
2022/09/09 07:14:14;;;;;;;11.90;4.68;;;15.70;99.90;;;;;;5055203;28;20113;-79
2022/09/09 07:16:44;;;;;;;8.25;4.63;;;16.20;99.90;;;;;;5070998;28;20048;-80
2022/09/09 07:19:11;;;;;;;9.52;5.15;;;16.70;99.90;;;;;;5071361;28;20135;-81
2022/09/09 07:21:36;;;;;;;6.32;4.28;;;17.40;99.90;;;;;;5054449;28;20558;-80
2022/09/09 07:24:02;;;;;;;9.18;4.15;;;18.00;99.90;;;;;;5071289;28;20041;-80
2022/09/09 07:26:30;;;;;;;5.82;4.22;;;18.20;99.90;;;;;;5072356;28;20080;-80
2022/09/09 07:28:56;;;;;;;8.93;4.43;;;18.50;99.90;;;;;;5071527;28;20485;-81
2022/09/09 07:31:30;;;;;;;6.78;4.05;;;18.80;99.90;;;;;;5054442;28;20511;-80
2022/09/09 07:33:56;;;;;;;9.50;4.00;;;19.10;99.90;;;;;;5071079;28;20052;-81
2022/09/09 07:36:30;;;;;;;7.60;3.53;;;19.10;99.90;;;;;;5072003;28;20052;-81
2022/09/09 07:38:59;;;;;;;7.63;3.85;;;19.10;99.90;;;;;;5071656;28;20141;-82
2022/09/09 07:41:34;;;;;;;6.40;3.67;;;19.30;99.90;;;;;;5071132;28;20116;-82
2022/09/09 07:44:03;;;;;;;10.15;4.57;;;19.30;99.90;;;;;;5069644;28;20615;-81
2022/09/09 07:46:29;;;;;;;5.82;3.50;;;19.20;99.90;;;;;;5072132;28;20041;-82
2022/09/09 07:48:56;;;;;;;7.70;3.47;;;19.40;99.90;;;;;;5071002;28;20393;-81
2022/09/09 07:51:28;;;;;;;6.75;3.90;;;19.70;99.90;;;;;;5070737;28;20051;-81
2022/09/09 07:53:59;;;;;;;8.90;3.50;;;19.90;99.90;;;;;;5070883;28;20044;-81
2022/09/09 07:56:26;;;;;;;8.20;3.85;;;19.90;99.90;;;;;;5070946;28;20044;-81
2022/09/09 07:58:54;;;;;;;6.00;3.63;;;19.70;99.90;;;;;;5054080;28;20051;-81
2022/09/09 08:01:21;;;;;;;7.53;3.45;;;19.30;99.90;;;;;;5069421;28;20068;-83
2022/09/09 08:03:54;;;;;;;7.18;3.55;;;18.90;99.90;;;;;;5052727;28;20049;-83
2022/09/09 08:06:20;;;;;;;7.43;4.30;;;18.60;99.90;;;;;;5069768;28;20094;-84
2022/09/09 08:08:50;;;;;;;7.07;3.17;;;18.40;99.90;;;;;;5053140;28;20036;-83
2022/09/09 08:11:16;;;;;;;10.02;4.18;;;18.20;99.90;;;;;;5052921;28;20041;-83
2022/09/09 08:13:43;;;;;;;7.28;3.72;;;18.10;99.90;;;;;;5052952;28;20481;-83
2022/09/09 08:16:15;;;;;;;7.80;4.55;;;18.00;99.90;;;;;;5053054;28;20119;-83
2022/09/09 08:18:41;;;;;;;;;;;18.00;99.90;;;;;;5070167;28;20037;-84
2022/09/09 08:21:13;;;;;;;9.10;3.92;;;18.00;99.90;;;;;;5053064;28;19916;-84
2022/09/09 08:23:41;;;;;;;11.05;3.80;;;18.20;99.90;;;;;;5052695;28;20102;-83
2022/09/09 08:26:22;;;;;;;9.50;3.45;;;18.30;99.90;;;;;;5071035;28;20491;-81
2022/09/09 08:28:52;;;;;;;12.82;3.28;;;18.30;99.90;;;;;;5071081;28;20079;-82
2022/09/09 08:31:23;;;;;;;6.53;3.25;;;18.30;99.90;;;;;;5070925;28;20091;-82
2022/09/09 08:33:49;;;;;;;8.60;2.65;;;18.30;99.90;;;;;;5074125;28;20079;-82
2022/09/09 08:36:21;;;;;;;11.77;2.90;;;18.20;99.90;;;;;;5058379;28;20048;-81
2022/09/09 08:38:50;;;;;;;7.30;2.70;;;18.10;99.90;;;;;;5058883;28;20078;-82
2022/09/09 08:41:40;;;;;;;6.00;2.53;;;18.10;99.90;;;;;;5040805;28;20113;-82
2022/09/09 08:44:36;;;;;;;5.68;2.78;;;18.10;99.90;;;;;;5074446;28;20036;-82
2022/09/09 08:47:19;;;;;;;5.78;2.70;;;18.30;99.90;;;;;;5075103;28;20071;-81
2022/09/09 08:50:23;;;;;;;8.80;2.50;;;18.30;99.90;;;;;;5057908;28;20123;-81
2022/09/09 08:53:30;;;;;;;11.07;2.90;;;18.40;99.90;;;;;;5073937;28;20048;-81
2022/09/09 08:56:01;;;;;;;10.07;3.25;;;18.60;99.90;;;;;;5074769;28;20051;-82
2022/09/09 08:58:33;;;;;;;6.85;2.35;;;18.60;99.90;;;;;;5073624;28;20040;-81
2022/09/09 09:01:14;;;;;;;6.93;2.60;;;18.60;99.90;;;;;;5073404;28;20032;-81
2022/09/09 09:03:58;;;;;;;7.90;2.45;;;18.40;99.90;;;;;;5057047;28;20480;-81
2022/09/09 09:06:35;;;;;;;10.55;2.58;;;18.50;99.90;;;;;;5073635;28;20037;-81
2022/09/09 09:09:18;;;;;;;8.07;2.53;;;19.00;99.90;;;;;;5057115;28;20044;-81
2022/09/09 09:11:47;;;;;;;8.25;2.85;;;19.70;99.90;;;;;;5073706;28;20044;-82
2022/09/09 09:14:25;;;;;;;6.75;2.28;;;20.00;99.90;;;;;;5056922;28;20037;-83
2022/09/09 09:16:59;;;;;;;6.35;2.40;;;20.00;99.90;;;;;;5056688;28;20047;-83
2022/09/09 09:19:27;;;;;;;10.63;2.60;;;19.90;99.90;;;;;;5057275;28;20047;-82
2022/09/09 09:22:16;;;;;;;13.38;3.38;;;19.60;99.90;;;;;;5073120;28;20111;-83
2022/09/09 09:24:45;;;;;;;9.38;2.90;;;19.50;99.90;;;;;;5073138;28;20040;-82
2022/09/09 09:27:18;;;;;;;6.93;2.22;;;19.30;99.90;;;;;;5073431;28;20048;-82
2022/09/09 09:29:45;;;;;;;9.52;1.50;;;19.30;99.90;;;;;;5057395;28;20044;-82
2022/09/09 09:32:18;;;;;;;5.82;2.10;;;19.20;99.90;;;;;;5057105;28;20084;-82
2022/09/09 09:34:55;;;;;;;4.97;1.70;;;19.30;99.90;;;;;;5087902;28;20051;-81
2022/09/09 09:37:29;;;;;;;10.00;2.03;;;19.30;99.90;;;;;;5091866;28;20048;-81
2022/09/09 09:40:17;;;;;;;8.15;1.75;;;19.20;99.90;;;;;;5071630;28;20044;-81
2022/09/09 09:42:56;;;;;;;5.78;1.50;;;19.20;99.90;;;;;;5076181;28;20454;-81
2022/09/09 09:45:41;;;;;;;8.10;2.00;;;19.10;99.90;;;;;;5077168;28;20516;-81
2022/09/09 09:48:11;;;;;;;12.95;2.10;;;19.10;99.90;;;;;;5076574;28;20060;-82
2022/09/09 09:50:51;;;;;;;5.43;2.28;;;19.10;99.90;;;;;;5077903;28;20092;-82
2022/09/09 09:53:25;;;;;;;5.22;2.50;;;19.10;99.90;;;;;;5059043;28;20141;-81
2022/09/09 09:55:53;;;;;;;10.00;2.25;;;19.10;99.90;;;;;;5059861;28;20029;-81
2022/09/09 09:58:19;;;;;;;9.70;2.22;;;19.10;99.90;;;;;;5058258;28;20039;-81
2022/09/09 10:01:00;;;;;;;7.65;1.75;;;19.10;99.90;;;;;;5077869;28;20033;-81
2022/09/09 10:03:26;;;;;;;7.93;1.60;;;19.40;99.90;;;;;;5058683;28;20075;-81
2022/09/09 10:05:53;;;;;;;6.50;1.40;;;19.60;99.90;;;;;;5061229;28;20290;-82
2022/09/09 10:08:25;;;;;;;4.18;1.65;;;19.70;99.90;;;;;;5068994;28;20074;-81
2022/09/09 10:11:32;;;;;;;5.95;1.65;;;19.80;99.90;;;;;;5083624;28;20682;-80
2022/09/09 10:14:33;;;;;;;7.93;1.87;;;19.90;99.90;;;;;;5074797;28;20091;-81
2022/09/09 10:17:06;;;;;;;7.63;1.80;;;20.10;99.90;;;;;;5057415;28;20063;-82
2022/09/09 10:19:35;;;;;;;6.97;1.85;;;20.20;99.90;;;;;;5076117;28;20047;-81
2022/09/09 10:22:30;;;;;;;8.88;1.63;;;20.20;99.90;;;;;;5056319;28;20040;-81
2022/09/09 10:25:20;;;;;;;8.93;1.42;;;20.20;99.90;;;;;;5074684;28;20048;-81
2022/09/09 10:28:05;;;;;;;8.88;1.63;;;20.00;99.90;;;;;;5073717;28;20086;-81
2022/09/09 10:30:39;;;;;;;4.78;1.27;;;20.00;99.90;;;;;;5073441;28;20044;-82
2022/09/09 10:33:44;;;;;;;8.55;1.73;;;19.90;99.90;;;;;;5057095;28;20036;-82
2022/09/09 10:36:18;;;;;;;6.68;2.50;;;19.80;99.90;;;;;;5075500;28;20048;-82
2022/09/09 10:39:07;;;;;;;7.20;1.70;;;19.70;99.90;;;;;;5072206;28;20048;-80
2022/09/09 10:42:05;;;;;;;4.45;1.38;;;19.60;99.90;;;;;;5042379;28;20842;-81
2022/09/09 10:44:54;;;;;;;8.25;1.55;;;19.50;99.90;;;;;;5058148;28;20037;-81
2022/09/09 10:47:48;;;;;;;3.60;1.23;;;19.40;99.90;;;;;;5074205;28;20047;-81
2022/09/09 10:51:01;;;;;;;6.97;1.75;;;19.20;99.90;;;;;;5058590;28;20040;-81
2022/09/09 10:53:36;;;;;;;4.00;1.50;;;19.20;99.90;;;;;;5022300;28;20088;-81
2022/09/09 10:56:08;;;;;;;7.93;1.60;;;19.20;99.90;;;;;;5056867;28;20044;-81
2022/09/09 10:58:56;;;;;;;;;;;19.30;99.90;;;;;;5074007;28;20048;-81
2022/09/09 11:01:26;;;;;;;4.15;1.30;;;19.50;99.90;;;;;;5057191;28;20372;-81
2022/09/09 11:04:01;;;;;;;10.35;1.70;;;19.60;99.90;;;;;;5074030;28;20036;-81
2022/09/09 11:06:39;;;;;;;7.03;1.67;;;19.80;99.90;;;;;;5074526;28;20037;-81
2022/09/09 11:09:06;;;;;;;10.30;2.40;;;19.90;99.90;;;;;;5074214;28;20040;-81
2022/09/09 11:11:44;;;;;;;7.13;1.80;;;19.90;99.90;;;;;;5057175;28;20076;-82
2022/09/09 11:14:40;;;;;;;8.80;1.90;;;19.80;99.90;;;;;;5057196;28;20040;-82
2022/09/09 11:17:33;;;;;;;10.07;1.40;;;19.70;99.90;;;;;;5073482;28;20124;-82
2022/09/09 11:19:59;;;;;;;5.10;1.40;;;19.60;99.90;;;;;;5057180;28;20494;-81
2022/09/09 11:22:36;;;;;;;6.20;1.92;;;19.40;99.90;;;;;;5074177;28;20044;-81
2022/09/09 11:25:17;;;;;;;4.63;1.33;;;19.30;99.90;;;;;;5057491;28;20040;-80
2022/09/09 11:27:49;;;;;;;4.03;1.25;;;19.20;99.90;;;;;;5075085;28;20040;-81
2022/09/09 11:30:19;;;;;;;10.85;2.22;;;19.10;99.90;;;;;;5057610;28;20040;-81
2022/09/09 11:33:15;;;;;;;6.13;2.45;;;19.00;99.90;;;;;;5064448;28;20067;-82
2022/09/09 11:36:02;;;;;;;8.45;1.75;;;19.10;99.90;;;;;;5057364;28;20040;-81
2022/09/09 11:38:51;;;;;;;9.10;1.92;;;19.30;99.90;;;;;;5057476;28;20622;-81
2022/09/09 11:41:20;;;;;;;5.55;1.63;;;19.50;99.90;;;;;;5055856;28;20542;-81
2022/09/09 11:43:51;;;;;;;4.28;1.70;;;19.70;99.90;;;;;;5056227;28;20047;-81
2022/09/09 11:46:19;;;;;;;3.25;1.20;;;20.00;99.90;;;;;;5070457;28;20109;-82
2022/09/09 11:48:57;;;;;;;5.20;1.67;;;20.30;99.90;;;;;;5074028;28;20033;-82
2022/09/09 11:51:23;;;;;;;4.68;1.42;;;20.60;99.90;;;;;;5057562;28;20102;-82
2022/09/09 11:53:52;;;;;;;9.35;1.63;;;20.80;99.90;;;;;;5075823;28;20157;-82
2022/09/09 11:56:30;;;;;;;4.85;1.20;;;21.10;99.90;;;;;;5045595;28;20064;-82
2022/09/09 11:59:20;;;;;;;2.58;1.13;;;21.40;99.90;;;;;;5054370;28;20041;-81
2022/09/09 12:01:49;;;;;;;5.05;1.25;;;21.40;99.90;;;;;;5073531;28;20051;-82
2022/09/09 12:04:40;;;;;;;9.48;1.52;;;21.40;99.90;;;;;;5057679;28;20049;-81
2022/09/09 12:07:31;;;;;;;6.72;1.58;;;21.30;99.90;;;;;;5058285;28;20510;-82
2022/09/09 12:10:22;;;;;;;7.57;1.90;;;21.10;99.90;;;;;;5065111;28;20062;-81
2022/09/09 12:12:47;;;;;;;6.10;1.42;;;20.80;99.90;;;;;;5085428;28;20117;-81
2022/09/09 12:15:20;;;;;;;4.63;1.30;;;20.70;99.90;;;;;;5085637;28;20068;-81
2022/09/09 12:17:50;;;;;;;4.25;1.50;;;20.70;99.90;;;;;;5065945;28;20051;-81
2022/09/09 12:20:16;;;;;;;5.50;1.23;;;20.70;99.90;;;;;;5083734;28;20068;-82
2022/09/09 12:23:10;;;;;;;4.55;1.35;;;20.80;99.90;;;;;;5083870;28;20089;-80
2022/09/09 12:25:54;;;;;;;7.15;1.55;;;21.00;99.90;;;;;;5051339;28;20067;-82
2022/09/09 12:28:40;;;;;;;7.07;1.75;;;21.00;99.90;;;;;;5056857;28;20059;-84
2022/09/09 12:31:28;;;;;;;3.70;1.20;;;20.90;99.90;;;;;;5055407;28;20052;-85
2022/09/09 12:33:53;;;;;;;6.00;1.10;;;20.60;99.90;;;;;;5039049;28;20044;-84
2022/09/09 12:36:24;;;;;;;5.80;1.35;;;20.30;99.90;;;;;;5055064;28;20075;-84
2022/09/09 12:38:51;;;;;;;2.88;0.95;;;20.20;99.90;;;;;;5055190;28;20082;-84
2022/09/09 12:41:24;;;;;;;5.70;1.55;;;20.30;99.90;;;;;;5037129;28;20040;-85
2022/09/09 12:43:51;;;;;;;8.27;1.63;;;20.40;99.90;;;;;;5054349;28;20048;-84
2022/09/09 12:46:40;;;;;;;4.88;1.13;;;20.70;99.90;;;;;;5037944;28;20051;-83
2022/09/09 12:49:36;;;;;;;4.95;1.25;;;21.10;99.90;;;;;;5054683;28;20586;-83
2022/09/09 12:52:13;;;;;;;5.25;1.30;;;21.10;99.90;;;;;;5055878;28;20080;-81
2022/09/09 12:54:46;;;;;;;3.13;1.17;;;21.00;99.90;;;;;;5060804;28;20052;-82
2022/09/09 12:57:13;;;;;;;3.40;1.05;;;20.80;99.90;;;;;;5058867;28;20501;-82
2022/09/09 12:59:42;;;;;;;4.45;1.13;;;20.60;99.90;;;;;;5041756;28;20037;-82
2022/09/09 13:02:26;;;;;;;4.40;1.52;;;20.50;99.90;;;;;;5058264;28;20052;-81
2022/09/09 13:04:53;;;;;;;5.68;1.50;;;20.40;99.90;;;;;;5040923;28;20059;-81
2022/09/09 13:07:21;;;;;;;4.32;1.20;;;20.40;99.90;;;;;;5058033;28;20044;-82
2022/09/09 13:09:48;;;;;;;4.65;1.27;;;20.50;99.90;;;;;;5057444;28;20036;-82
2022/09/09 13:12:22;;;;;;;3.97;0.95;;;20.70;99.90;;;;;;5040598;28;20123;-81
2022/09/09 13:14:51;;;;;;;2.50;0.95;;;20.80;99.90;;;;;;5041115;28;20044;-81
2022/09/09 13:17:21;;;;;;;6.72;0.93;;;20.70;99.90;;;;;;5040751;28;20102;-81